createdAt,value
2018-11-23T00:00:38.551Z,98357.31
2018-11-23T00:03:27.336Z,98350.23
2018-11-23T00:06:16.152Z,98350.83
2018-11-23T00:09:06.147Z,98352.59
2018-11-23T00:11:54.910Z,98350.98
2018-11-23T00:14:43.710Z,98213.11
2018-11-23T00:17:32.505Z,98362.36
2018-11-23T00:20:22.709Z,98365.56
2018-11-23T00:23:11.493Z,98191.27
2018-11-23T00:26:00.308Z,98058.37
2018-11-23T00:28:49.101Z,98372.05
2018-11-23T00:31:37.943Z,98369.34
2018-11-23T00:34:27.105Z,98369.26
2018-11-23T00:37:15.894Z,98376.17
2018-11-23T00:40:05.281Z,98041.86
2018-11-23T00:43:13.082Z,98376.27
2018-11-23T00:46:01.857Z,98375.19
2018-11-23T00:48:50.651Z,98376.53
2018-11-23T00:51:39.481Z,98378.72
2018-11-23T00:54:28.274Z,98386.40
2018-11-23T00:57:17.073Z,98385.86
2018-11-23T01:00:09.221Z,98210.11
2018-11-23T01:02:58.829Z,98388.12
2018-11-23T01:05:47.612Z,98384.94
2018-11-23T01:08:36.391Z,98236.48
2018-11-23T01:11:25.190Z,98375.73
2018-11-23T01:14:13.975Z,98379.19
2018-11-23T01:17:03.092Z,98384.15
2018-11-23T01:19:51.887Z,98391.70
2018-11-23T01:22:41.063Z,98392.23
2018-11-23T01:25:29.893Z,98388.91
2018-11-23T01:28:19.131Z,98045.00
2018-11-23T01:31:08.276Z,98386.27
2018-11-23T01:33:57.421Z,98390.16
2018-11-23T01:36:46.218Z,98391.02
2018-11-23T01:39:35.158Z,98387.38
2018-11-23T01:42:23.946Z,98387.72
2018-11-23T01:45:13.476Z,98389.92
2018-11-23T01:48:02.596Z,98393.34
2018-11-23T01:50:51.430Z,98380.84
2018-11-23T01:53:40.235Z,98374.80
2018-11-23T01:56:29.132Z,98377.33
2018-11-23T01:59:17.912Z,98377.78
2018-11-23T02:02:06.928Z,98377.25
2018-11-23T02:04:55.751Z,98378.88
2018-11-23T02:07:44.548Z,98060.58
2018-11-23T02:10:33.634Z,98376.48
2018-11-23T02:13:22.780Z,98090.89
2018-11-23T02:16:11.612Z,98378.46
2018-11-23T02:19:00.389Z,98070.74
2018-11-23T02:21:49.220Z,98383.59
2018-11-23T02:24:38.364Z,98343.58
2018-11-23T02:27:27.201Z,98386.92
2018-11-23T02:30:35.677Z,98381.61
2018-11-23T02:33:24.908Z,98375.94
2018-11-23T02:36:13.716Z,98372.70
2018-11-23T02:39:02.522Z,98373.92
2018-11-23T02:41:51.318Z,98129.63
2018-11-23T02:44:40.476Z,98374.78
2018-11-23T02:47:29.259Z,98120.79
2018-11-23T02:50:18.073Z,98376.45
2018-11-23T02:53:06.904Z,98373.02
2018-11-23T02:55:55.686Z,98373.47
2018-11-23T02:58:44.536Z,98376.93
2018-11-23T03:01:33.336Z,98373.25
2018-11-23T03:04:22.142Z,98373.02
2018-11-23T03:07:11.274Z,98039.77
2018-11-23T03:10:00.069Z,98371.43
2018-11-23T03:12:49.694Z,98053.97
2018-11-23T03:15:38.475Z,98366.27
2018-11-23T03:18:27.598Z,98269.86
2018-11-23T03:21:16.391Z,98370.24
2018-11-23T03:24:05.202Z,98364.27
2018-11-23T03:26:53.990Z,98064.63
2018-11-23T03:29:42.771Z,98368.38
2018-11-23T03:32:31.883Z,98097.78
2018-11-23T03:35:21.623Z,98367.78
2018-11-23T03:38:10.465Z,98363.53
2018-11-23T03:40:59.277Z,98243.17
2018-11-23T03:43:48.065Z,98267.27
2018-11-23T03:46:37.161Z,98365.20
2018-11-23T03:49:25.939Z,98023.47
2018-11-23T03:52:14.774Z,98357.19
2018-11-23T03:55:03.570Z,98353.47
2018-11-23T03:57:52.471Z,98353.02
2018-11-23T04:00:41.254Z,98352.80
2018-11-23T04:03:49.022Z,98066.19
2018-11-23T04:06:37.808Z,98303.69
2018-11-23T04:09:26.606Z,98004.12
2018-11-23T04:12:15.542Z,98346.59
2018-11-23T04:15:04.340Z,98349.31
2018-11-23T04:17:53.121Z,98346.47
2018-11-23T04:20:46.911Z,98350.33
2018-11-23T04:23:35.994Z,98353.16
2018-11-23T04:26:24.981Z,98254.20
2018-11-23T04:29:13.597Z,98349.45
2018-11-23T04:32:02.403Z,98349.45
2018-11-23T04:34:51.189Z,98348.19
2018-11-23T04:37:39.988Z,98342.25
2018-11-23T04:40:28.769Z,98348.25
2018-11-23T04:43:17.582Z,98055.81
2018-11-23T04:46:06.613Z,98357.33
2018-11-23T04:48:55.399Z,98352.70
2018-11-23T04:51:44.216Z,98056.89
2018-11-23T04:54:33.006Z,98359.91
2018-11-23T04:57:22.103Z,98365.13
2018-11-23T05:00:13.060Z,98295.65
2018-11-23T05:03:02.187Z,98363.33
2018-11-23T05:05:50.982Z,98362.81
2018-11-23T05:08:39.787Z,98358.81
2018-11-23T05:11:28.915Z,98365.75
2018-11-23T05:14:17.718Z,98364.38
2018-11-23T05:17:06.892Z,98354.27
2018-11-23T05:19:54.694Z,98357.55
2018-11-23T05:22:43.841Z,98353.93
2018-11-23T05:25:33.056Z,98353.56
2018-11-23T05:28:21.835Z,98351.50
2018-11-23T05:31:10.685Z,98354.47
2018-11-23T05:33:59.484Z,98347.48
2018-11-23T05:36:48.540Z,98353.96
2018-11-23T05:39:37.440Z,98303.31
2018-11-23T05:42:26.461Z,98166.75
2018-11-23T05:45:16.952Z,98340.79
2018-11-23T05:48:26.948Z,98343.64
2018-11-23T05:51:13.960Z,98348.55
2018-11-23T05:54:02.988Z,98157.80
2018-11-23T05:56:51.936Z,98251.00
2018-11-23T05:59:40.978Z,98336.00
2018-11-23T06:02:29.913Z,98338.97
2018-11-23T06:05:18.929Z,98335.88
2018-11-23T06:08:07.962Z,98334.53
2018-11-23T06:10:57.393Z,98340.05
2018-11-23T06:13:46.825Z,98344.61
2018-11-23T06:16:35.965Z,98343.66
2018-11-23T06:19:24.748Z,98339.77
2018-11-23T06:22:13.548Z,98341.84
2018-11-23T06:25:02.349Z,98343.60
2018-11-23T06:27:51.141Z,98344.73
2018-11-23T06:30:39.933Z,98347.44
2018-11-23T06:33:49.076Z,98345.41
2018-11-23T06:36:37.866Z,98320.55
2018-11-23T06:39:27.091Z,98351.41
2018-11-23T06:42:16.167Z,98349.03
2018-11-23T06:45:05.002Z,98130.91
2018-11-23T06:47:53.775Z,98346.86
2018-11-23T06:50:42.598Z,98349.71
2018-11-23T06:53:31.438Z,98354.41
2018-11-23T06:56:20.264Z,98361.13
2018-11-23T06:59:09.143Z,98359.94
2018-11-23T07:01:58.009Z,98356.11
2018-11-23T07:04:46.805Z,98354.59
2018-11-23T07:07:35.971Z,98350.88
2018-11-23T07:10:24.758Z,98156.05
2018-11-23T07:13:13.561Z,98352.00
2018-11-23T07:16:02.378Z,98352.19
2018-11-23T07:18:51.240Z,98348.56
2018-11-23T07:21:40.036Z,98352.70
2018-11-23T07:24:28.894Z,98352.77
2018-11-23T07:27:17.713Z,98355.88
2018-11-23T07:30:27.048Z,98356.63
2018-11-23T07:33:15.851Z,98350.59
2018-11-23T07:36:04.721Z,98358.99
2018-11-23T07:38:53.503Z,98356.53
2018-11-23T07:42:25.104Z,98359.16
2018-11-23T07:45:14.211Z,98364.14
2018-11-23T07:48:02.994Z,98363.74
2018-11-23T07:50:51.786Z,98360.56
2018-11-23T07:53:40.598Z,98361.67
2018-11-23T07:56:48.363Z,98363.08
2018-11-23T07:59:37.861Z,98321.06
2018-11-23T08:02:26.680Z,98363.22
2018-11-23T08:05:16.500Z,98365.83
2018-11-23T08:08:05.858Z,98365.77
2018-11-23T08:10:54.040Z,98366.94
2018-11-23T08:13:42.850Z,98370.19
2018-11-23T08:16:31.616Z,98333.91
2018-11-23T08:19:20.421Z,98367.56
2018-11-23T08:22:09.214Z,98362.48
2018-11-23T08:24:58.028Z,98362.19
2018-11-23T08:27:48.088Z,98361.19
2018-11-23T08:30:36.876Z,98177.89
2018-11-23T08:33:25.675Z,98354.72
2018-11-23T08:39:10.925Z,98353.00
2018-11-23T08:41:59.703Z,98360.89
2018-11-23T08:44:48.561Z,98335.33
2018-11-23T08:47:37.578Z,98359.95
2018-11-23T08:50:27.789Z,98363.95
2018-11-23T08:53:16.579Z,98061.59
2018-11-23T08:56:05.816Z,98362.15
2018-11-23T08:58:54.588Z,98356.45
2018-11-23T09:01:43.383Z,98176.55
2018-11-23T09:04:32.175Z,98343.34
2018-11-23T09:07:21.003Z,98340.58
2018-11-23T09:10:12.445Z,98343.55
2018-11-23T09:13:02.828Z,98340.37
2018-11-23T09:15:51.644Z,98336.98
2018-11-23T09:18:40.536Z,98332.28
2018-11-23T09:21:29.632Z,98330.99
2018-11-23T09:24:18.423Z,98328.42
2018-11-23T09:27:07.213Z,98333.50
2018-11-23T09:29:56.023Z,98338.04
2018-11-23T09:32:45.305Z,98329.09
2018-11-23T09:35:34.110Z,98325.84
2018-11-23T09:38:23.484Z,98327.44
2018-11-23T09:41:12.537Z,98319.23
2018-11-23T09:44:01.508Z,98324.91
2018-11-23T09:46:50.301Z,98330.22
2018-11-23T09:49:39.863Z,98327.45
2018-11-23T09:52:28.610Z,98321.64
2018-11-23T09:55:18.076Z,98327.63
2018-11-23T09:58:25.842Z,98334.88
2018-11-23T10:01:14.631Z,98342.03
2018-11-23T10:04:03.422Z,98338.66
2018-11-23T10:06:52.203Z,98327.62
2018-11-23T10:09:59.974Z,98053.86
2018-11-23T10:13:07.710Z,98324.59
2018-11-23T10:15:56.517Z,98315.32
2018-11-23T10:18:45.292Z,98318.80
2018-11-23T10:21:53.056Z,98311.57
2018-11-23T10:24:42.401Z,98315.34
2018-11-23T10:27:31.301Z,98317.73
2018-11-23T10:30:39.230Z,98315.00
2018-11-23T10:33:46.945Z,98316.52
2018-11-23T10:36:35.726Z,98316.71
2018-11-23T10:39:24.511Z,98101.97
2018-11-23T10:42:32.364Z,98309.20
2018-11-23T10:45:23.397Z,98313.51
2018-11-23T10:48:12.156Z,98301.62
2018-11-23T10:51:20.170Z,98294.28
2018-11-23T10:54:27.905Z,98285.84
2018-11-23T10:57:16.703Z,98282.72
2018-11-23T11:00:06.086Z,98276.09
2018-11-23T11:03:14.544Z,98275.30
2018-11-23T11:06:23.766Z,98274.70
2018-11-23T11:09:12.675Z,98274.97
2018-11-23T11:12:20.455Z,98274.63
2018-11-23T11:15:28.814Z,98266.75
2018-11-23T11:18:36.968Z,98007.59
2018-11-23T11:21:26.356Z,98251.66
2018-11-23T11:23:56.028Z,98251.86
2018-11-23T11:26:45.007Z,98250.19
2018-11-23T11:29:52.756Z,98248.30
2018-11-23T11:33:00.484Z,98236.75
2018-11-23T11:36:08.562Z,98065.99
2018-11-23T11:39:18.185Z,98231.55
2018-11-23T11:42:05.223Z,98181.11
2018-11-23T11:44:53.977Z,98209.13
2018-11-23T11:48:01.754Z,98204.48
2018-11-23T11:51:09.491Z,98206.29
2018-11-23T11:54:17.247Z,98205.33
2018-11-23T11:57:06.159Z,98206.15
2018-11-23T12:00:13.916Z,98202.14
2018-11-23T12:03:21.989Z,97960.38
2018-11-23T12:06:29.758Z,98194.02
2018-11-23T12:09:37.480Z,98189.00
2018-11-23T12:12:26.289Z,98187.52
2018-11-23T12:15:34.030Z,98181.66
2018-11-23T12:18:41.784Z,98178.16
2018-11-23T12:21:30.563Z,97923.70
2018-11-23T12:24:38.298Z,98162.58
2018-11-23T12:27:29.488Z,98166.53
2018-11-23T12:30:34.943Z,98171.36
2018-11-23T12:33:42.701Z,98168.91
2018-11-23T12:36:50.452Z,97945.51
2018-11-23T12:39:58.201Z,98173.27
2018-11-23T12:43:05.964Z,98165.20
2018-11-23T12:45:54.732Z,98160.94
2018-11-23T12:49:02.499Z,98156.21
2018-11-23T12:52:10.231Z,98161.78
2018-11-23T12:54:59.019Z,98153.70
2018-11-23T12:58:06.767Z,98149.36
2018-11-23T13:00:55.560Z,98147.22
2018-11-23T13:03:44.713Z,98040.58
2018-11-23T13:06:33.692Z,98143.13
2018-11-23T13:09:22.606Z,98141.30
2018-11-23T13:12:32.128Z,98138.78
2018-11-23T13:15:40.038Z,98140.39
2018-11-23T13:18:28.846Z,98146.86
2018-11-23T13:21:17.665Z,98135.98
2018-11-23T13:24:06.496Z,98132.95
2018-11-23T13:27:14.252Z,98127.08
2018-11-23T13:30:03.014Z,98130.88
2018-11-23T13:32:51.858Z,97926.38
2018-11-23T13:35:59.601Z,98122.39
2018-11-23T13:39:07.379Z,98125.03
2018-11-23T13:41:56.143Z,98121.46
2018-11-23T13:44:44.929Z,98120.05
2018-11-23T13:47:14.330Z,98122.14
2018-11-23T13:50:03.325Z,98117.42
2018-11-23T13:53:11.099Z,98109.30
2018-11-23T13:56:18.848Z,98115.13
2018-11-23T13:59:07.630Z,98116.47
2018-11-23T14:01:56.404Z,98113.52
2018-11-23T14:04:45.198Z,98109.32
2018-11-23T14:07:52.944Z,98115.90
2018-11-23T14:11:00.711Z,98117.59
2018-11-23T14:13:49.515Z,98116.89
2018-11-23T14:16:38.272Z,98101.98
2018-11-23T14:19:27.441Z,98074.76
2018-11-23T14:22:16.210Z,98110.56
2018-11-23T14:25:24.244Z,98104.22
2018-11-23T14:28:31.982Z,98102.95
2018-11-23T14:31:20.780Z,98105.92
2018-11-23T14:34:09.545Z,98110.52
2018-11-23T14:36:58.463Z,98103.33
2018-11-23T14:39:47.794Z,98109.72
2018-11-23T14:42:37.119Z,97914.95
2018-11-23T14:45:27.756Z,98100.80
2018-11-23T14:48:16.556Z,98102.87
2018-11-23T14:51:05.314Z,98099.50
2018-11-23T14:53:54.238Z,98099.84
2018-11-23T14:56:43.017Z,98102.80
2018-11-23T14:59:50.783Z,98098.59
2018-11-23T15:02:39.901Z,97889.91
2018-11-23T15:05:28.684Z,98105.30
2018-11-23T15:08:36.455Z,98106.52
2018-11-23T15:11:44.216Z,98100.87
2018-11-23T15:14:26.040Z,98105.44
2018-11-23T15:17:14.922Z,98108.48
2018-11-23T15:20:03.715Z,98100.10
2018-11-23T15:22:54.206Z,98099.91
2018-11-23T15:25:42.991Z,98099.60
2018-11-23T15:28:50.731Z,98091.22
2018-11-23T15:31:39.519Z,98087.61
2018-11-23T15:34:47.285Z,98081.61
2018-11-23T15:37:55.043Z,98076.58
2018-11-23T15:40:43.819Z,98079.55
2018-11-23T15:43:32.609Z,98077.27
2018-11-23T15:46:21.368Z,98079.98
2018-11-23T15:49:10.475Z,98076.83
2018-11-23T15:52:18.235Z,98075.70
2018-11-23T15:55:09.820Z,98072.08
2018-11-23T15:58:00.596Z,98066.73
2018-11-23T16:01:08.357Z,98065.61
2018-11-23T16:04:16.097Z,98075.20
2018-11-23T16:07:05.468Z,98078.97
2018-11-23T16:09:54.255Z,98074.23
2018-11-23T16:12:43.322Z,98071.63
2018-11-23T16:15:51.072Z,98067.09
2018-11-23T16:18:39.853Z,97978.34
2018-11-23T16:21:28.681Z,98063.63
2018-11-23T16:24:36.431Z,98065.77
2018-11-23T16:27:25.268Z,98065.80
2018-11-23T16:30:34.774Z,98068.84
2018-11-23T16:33:42.851Z,98067.77
2018-11-23T16:36:50.608Z,97756.82
2018-11-23T16:39:39.374Z,98069.69
2018-11-23T16:42:28.196Z,98069.25
2018-11-23T16:45:19.611Z,98069.83
2018-11-23T16:48:09.389Z,98065.59
2018-11-23T16:51:17.146Z,97760.19
2018-11-23T16:54:06.293Z,98071.65
2018-11-23T16:56:55.076Z,98069.83
2018-11-23T16:59:43.847Z,98066.48
2018-11-23T17:02:32.637Z,98068.81
2018-11-23T17:05:22.933Z,98065.48
2018-11-23T17:08:11.888Z,98065.34
2018-11-23T17:11:00.676Z,97967.16
2018-11-23T17:13:49.476Z,98060.34
2018-11-23T17:16:38.247Z,98059.08
2018-11-23T17:19:46.015Z,98066.91
2018-11-23T17:22:53.764Z,98062.80
2018-11-23T17:25:42.607Z,98061.35
2018-11-23T17:28:31.396Z,97750.68
2018-11-23T17:31:39.200Z,98055.49
2018-11-23T17:34:27.977Z,98060.50
2018-11-23T17:37:17.105Z,98051.50
2018-11-23T17:40:26.106Z,98051.79
2018-11-23T17:43:33.858Z,98052.86
2018-11-23T17:46:22.647Z,98056.57
2018-11-23T17:49:30.409Z,98062.34
2018-11-23T17:52:19.187Z,98062.38
2018-11-23T17:55:09.354Z,98051.18
2018-11-23T17:57:58.522Z,98044.74
2018-11-23T18:01:06.564Z,97975.19
2018-11-23T18:03:55.422Z,98043.15
2018-11-23T18:07:03.484Z,98039.11
2018-11-23T18:10:11.252Z,98036.59
2018-11-23T18:13:00.661Z,98032.92
2018-11-23T18:16:08.424Z,98026.52
2018-11-23T18:19:16.214Z,98025.14
2018-11-23T18:22:05.015Z,98027.30
2018-11-23T18:24:53.782Z,98030.30
2018-11-23T18:27:43.440Z,98023.40
2018-11-23T18:30:33.290Z,97982.38
2018-11-23T18:33:22.157Z,98016.36
2018-11-23T18:36:29.928Z,98016.16
2018-11-23T18:39:37.670Z,98017.35
2018-11-23T18:42:45.458Z,98009.28
2018-11-23T18:45:34.623Z,98002.72
2018-11-23T18:48:42.375Z,97998.91
2018-11-23T18:51:50.123Z,97990.57
2018-11-23T18:54:38.913Z,97641.53
2018-11-23T18:57:27.686Z,97984.61
2018-11-23T19:00:35.561Z,97979.68
2018-11-23T19:03:24.363Z,97656.86
2018-11-23T19:06:13.157Z,97978.23
2018-11-23T19:09:20.932Z,97874.20
2018-11-23T19:12:28.668Z,97976.16
2018-11-23T19:15:37.121Z,97969.12
2018-11-23T19:18:25.917Z,97966.75
2018-11-23T19:21:14.723Z,97951.19
2018-11-23T19:24:03.513Z,97945.38
2018-11-23T19:26:52.516Z,97944.82
2018-11-23T19:29:41.459Z,97935.70
2018-11-23T19:32:49.230Z,97935.81
2018-11-23T19:35:38.035Z,97931.78
2018-11-23T19:38:26.924Z,97933.14
2018-11-23T19:41:34.870Z,97926.08
2018-11-23T19:44:23.924Z,97925.63
2018-11-23T19:47:33.777Z,97885.09
2018-11-23T19:50:41.689Z,97921.59
2018-11-23T19:53:49.566Z,97914.80
2018-11-23T19:56:57.687Z,97921.03
2018-11-23T19:59:47.174Z,97927.33
2018-11-23T20:02:36.850Z,97916.00
2018-11-23T20:05:26.534Z,97917.07
2018-11-23T20:08:16.035Z,97851.92
2018-11-23T20:11:05.735Z,97887.13
2018-11-23T20:13:55.076Z,97922.52
2018-11-23T20:16:44.305Z,97925.82
2018-11-23T20:19:52.389Z,97921.63
2018-11-23T20:22:41.995Z,97926.84
2018-11-23T20:25:50.716Z,97922.34
2018-11-23T20:28:59.132Z,97926.08
2018-11-23T20:32:07.948Z,97917.55
2018-11-23T20:35:16.459Z,97911.08
2018-11-23T20:38:07.213Z,97901.34
2018-11-23T20:41:16.472Z,97902.70
2018-11-23T20:44:25.829Z,97893.42
2018-11-23T20:50:43.914Z,97877.05
2018-11-23T20:53:34.442Z,97877.34
2018-11-23T20:56:24.161Z,97884.72
2018-11-23T20:59:14.488Z,97886.83
2018-11-23T21:02:23.892Z,97797.23
2018-11-23T21:08:45.901Z,97870.78
2018-11-23T21:11:37.602Z,97865.63
2018-11-23T21:14:46.761Z,97864.89
2018-11-23T21:17:37.753Z,97861.55
2018-11-23T21:20:46.619Z,97868.19
2018-11-23T21:23:36.579Z,97859.30
2018-11-23T21:26:26.062Z,97860.39
2018-11-23T21:29:34.568Z,97847.03
2018-11-23T21:32:24.302Z,97845.38
2018-11-23T21:35:14.133Z,97845.56
2018-11-23T21:38:03.351Z,97844.66
2018-11-23T21:40:52.202Z,97843.41
2018-11-23T21:43:59.999Z,97833.61
2018-11-23T21:47:07.825Z,97840.71
2018-11-23T21:50:15.688Z,97829.68
2018-11-23T21:53:04.666Z,97829.80
2018-11-23T21:55:53.642Z,97823.45
2018-11-23T21:58:42.458Z,97811.38
2018-11-23T22:01:31.234Z,97812.05
2018-11-23T22:04:38.995Z,97647.61
2018-11-23T22:07:27.805Z,97815.02
2018-11-23T22:10:17.512Z,97804.23
2018-11-23T22:13:25.303Z,97810.64
2018-11-23T22:16:33.114Z,97804.23
2018-11-23T22:19:40.855Z,97798.30
2018-11-23T22:22:29.669Z,97796.84
2018-11-23T22:25:38.424Z,97646.72
2018-11-23T22:28:46.502Z,97795.98
2018-11-23T22:31:35.649Z,97800.07
2018-11-23T22:34:24.773Z,97795.53
2018-11-23T22:37:14.710Z,97798.20
2018-11-23T22:40:22.476Z,97519.42
2018-11-23T22:43:11.273Z,97791.80
2018-11-23T22:46:19.068Z,97455.55
2018-11-23T22:49:08.160Z,97784.61
2018-11-23T22:52:15.944Z,97778.46
2018-11-23T22:55:23.740Z,97772.88
2018-11-23T22:58:12.539Z,97774.06
2018-11-23T23:01:20.338Z,97762.64
2018-11-23T23:04:09.464Z,97761.08
2018-11-23T23:07:17.238Z,97415.81
2018-11-23T23:10:06.500Z,97754.84
2018-11-23T23:12:55.286Z,97703.02
2018-11-23T23:15:44.444Z,97753.81
2018-11-23T23:18:52.206Z,97753.63
2018-11-23T23:21:41.013Z,97757.32
2018-11-23T23:24:48.779Z,97762.59
2018-11-23T23:27:56.604Z,97754.30
2018-11-23T23:30:45.394Z,97746.75
2018-11-23T23:33:34.270Z,97752.34
2018-11-23T23:36:42.017Z,97751.17
2018-11-23T23:39:30.826Z,97748.58
2018-11-23T23:42:19.657Z,97438.09
2018-11-23T23:45:27.824Z,97747.44
2018-11-23T23:48:16.654Z,97739.45
2018-11-23T23:51:06.431Z,97736.23
2018-11-23T23:54:14.249Z,97731.61
2018-11-23T23:57:21.997Z,97720.98
